Time;durP1;ratioP1;P1;durP2;ratioP2;P2;SDS_P1;SDS_P2;PMS_P1;PMS_P2;Temp;Humidity;BMP_temperature;BMP_pressure;BME280_temperature;BME280_humidity;BME280_pressure;Samples;Min_cycle;Max_cycle;Signal;HPM_P1;HPM_P2
2020/12/29 00:01:31;;;;;;;;;;;;;;;3.60;87.82;97681.34;4974575;28;20403;-64
2020/12/29 00:03:59;;;;;;;16.08;9.75;;;;;;;3.79;87.29;97682.34;4974176;28;19922;-65
2020/12/29 00:06:26;;;;;;;12.23;8.88;;;;;;;3.79;86.46;97689.72;4973804;28;20047;-66
2020/12/29 00:08:54;;;;;;;12.40;9.05;;;;;;;3.89;86.94;97689.28;4974522;28;20055;-64
2020/12/29 00:11:27;;;;;;;11.93;8.98;;;;;;;4.03;86.38;97697.84;4971655;28;20050;-65
2020/12/29 00:13:54;;;;;;;13.10;9.57;;;;;;;4.26;85.82;97702.44;4973807;28;20059;-65
2020/12/29 00:16:21;;;;;;;14.98;10.40;;;;;;;4.29;85.00;97726.25;4973546;28;20058;-66
2020/12/29 00:18:51;;;;;;;15.27;10.40;;;;;;;4.31;84.82;97732.16;4973966;28;20486;-65
2020/12/29 00:21:21;;;;;;;15.95;10.32;;;;;;;4.41;84.22;97726.22;4973667;28;20140;-65
2020/12/29 00:23:50;;;;;;;16.23;11.30;;;;;;;4.63;83.16;97741.25;4974019;28;20050;-64
2020/12/29 00:26:17;;;;;;;15.88;11.13;;;;;;;4.68;82.51;97751.09;4973812;28;20055;-67
2020/12/29 00:28:45;;;;;;;15.00;9.88;;;;;;;4.62;82.45;97758.72;4974335;28;20069;-66
2020/12/29 00:31:20;;;;;;;14.77;10.88;;;;;;;4.39;82.75;97758.47;4974103;28;20394;-67
2020/12/29 00:33:48;;;;;;;15.45;10.70;;;;;;;4.23;83.70;97765.78;4973899;28;20043;-64
2020/12/29 00:36:16;;;;;;;16.08;11.30;;;;;;;4.27;83.90;97760.44;4977146;28;20070;-66
2020/12/29 00:38:42;;;;;;;16.10;11.98;;;;;;;4.37;83.47;97759.97;4977696;28;20059;-65
2020/12/29 00:41:11;;;;;;;16.63;11.55;;;;;;;4.39;83.18;97760.41;4976974;28;20070;-65
2020/12/29 00:43:39;;;;;;;16.00;11.93;;;;;;;4.20;83.72;97768.41;4977904;28;20051;-66
2020/12/29 00:46:11;;;;;;;17.67;12.93;;;;;;;4.46;83.90;97785.91;4978026;28;20058;-65
2020/12/29 00:48:39;;;;;;;17.90;12.80;;;;;;;4.60;83.19;97789.06;4977629;28;20058;-66
2020/12/29 00:51:09;;;;;;;17.23;12.27;;;;;;;4.47;82.47;97779.34;4992364;28;20502;-63
2020/12/29 00:53:41;;;;;;;18.42;13.52;;;;;;;4.23;83.17;97778.59;4960432;28;20054;-65
2020/12/29 00:56:10;;;;;;;18.83;13.38;;;;;;;4.54;82.94;97785.00;4977346;28;20057;-64
2020/12/29 00:58:39;;;;;;;20.33;13.50;;;;;;;4.59;81.96;97787.50;4991661;28;20054;-64
2020/12/29 01:01:09;;;;;;;20.25;13.93;;;;;;;4.46;81.84;97799.53;4977743;28;20062;-65
2020/12/29 01:03:57;;;;;;;19.65;14.00;;;;;;;4.55;82.21;97799.41;4977900;28;20047;-65
2020/12/29 01:06:28;;;;;;;18.63;13.32;;;;;;;4.65;81.58;97809.84;4992737;28;20054;-66
2020/12/29 01:08:58;;;;;;;22.48;14.07;;;;;;;4.48;81.70;97810.91;4977572;28;20043;-65
2020/12/29 01:11:34;;;;;;;19.25;13.30;;;;;;;4.22;82.36;97813.22;4975003;28;20053;-66
2020/12/29 01:14:04;;;;;;;21.20;14.25;;;;;;;4.11;83.53;97811.31;4960683;28;20054;-65
2020/12/29 01:16:33;;;;;;;19.40;14.52;;;;;;;4.34;83.31;97812.44;4991599;28;20073;-65
2020/12/29 01:19:00;;;;;;;22.38;14.65;;;;;;;4.07;83.30;97830.25;4992180;28;20054;-66
2020/12/29 01:21:27;;;;;;;20.42;14.55;;;;;;;4.33;83.07;97835.34;4977063;28;20054;-67
2020/12/29 01:23:54;;;;;;;23.08;14.27;;;;;;;4.36;82.06;97848.28;4977298;28;20050;-65
2020/12/29 01:26:24;;;;;;;19.92;13.73;;;;;;;4.15;83.28;97855.81;4977281;28;20406;-64
2020/12/29 01:28:54;;;;;;;20.65;13.85;;;;;;;4.23;82.93;97874.75;4977335;28;20055;-68
2020/12/29 01:31:25;;;;;;;;;;;;;;;4.10;83.37;97875.88;4977084;28;20050;-64
2020/12/29 01:33:51;;;;;;;;;;;;;;;4.09;83.66;97879.75;4977468;28;20366;-64
2020/12/29 01:36:18;;;;;;;19.00;13.07;;;;;;;4.25;82.84;97877.13;4976339;28;19929;-64
2020/12/29 01:38:45;;;;;;;20.13;13.52;;;;;;;4.12;82.89;97884.50;4976719;28;20055;-64
2020/12/29 01:41:12;;;;;;;19.38;12.75;;;;;;;4.00;83.27;97895.41;4976669;28;20047;-66
2020/12/29 01:43:39;;;;;;;20.45;13.60;;;;;;;3.86;83.69;97896.84;4976222;28;20394;-65
2020/12/29 01:46:06;;;;;;;20.90;13.85;;;;;;;4.08;83.52;97905.38;4976830;28;20055;-65
2020/12/29 01:48:33;;;;;;;20.30;13.60;;;;;;;4.14;83.41;97906.75;4976453;28;20057;-65
2020/12/29 01:51:00;;;;;;;19.85;14.10;;;;;;;4.13;83.25;97907.88;4976464;28;20066;-64
2020/12/29 01:53:27;;;;;;;19.85;13.65;;;;;;;3.95;83.27;97925.56;4976241;28;20055;-64
2020/12/29 01:55:54;;;;;;;20.15;13.40;;;;;;;4.00;83.60;97930.00;4959127;28;20054;-65
2020/12/29 01:58:21;;;;;;;18.80;12.80;;;;;;;4.11;83.57;97929.22;4976284;28;20059;-65
2020/12/29 02:00:48;;;;;;;18.55;13.07;;;;;;;4.11;83.46;97940.13;4976689;28;20066;-65
2020/12/29 02:03:16;;;;;;;17.23;12.20;;;;;;;4.28;82.23;97950.00;4975768;28;20483;-67
2020/12/29 02:05:47;;;;;;;21.10;12.23;;;;;;;4.37;82.14;97953.41;4975930;28;20043;-65
2020/12/29 02:08:21;;;;;;;17.65;11.98;;;;;;;4.30;81.92;97964.88;4975843;28;20058;-66
2020/12/29 02:15:17;;;;;;;19.60;12.35;;;;;;;4.07;83.44;97976.53;4975985;28;20073;-65
2020/12/29 02:17:44;;;;;;;20.92;13.00;;;;;;;4.20;82.73;97981.66;4976098;28;20054;-63
2020/12/29 02:20:11;;;;;;;20.08;13.00;;;;;;;4.36;82.52;97998.13;4976310;28;20478;-64
2020/12/29 02:22:39;;;;;;;19.35;12.93;;;;;;;4.41;82.23;98004.16;4976040;28;20510;-65
2020/12/29 02:29:55;;;;;;;17.75;12.00;;;;;;;4.42;81.98;98019.41;4975921;28;20047;-66
2020/12/29 02:32:23;;;;;;;18.63;13.10;;;;;;;4.35;82.10;98021.88;4989643;28;20054;-64
2020/12/29 02:34:50;;;;;;;18.23;12.05;;;;;;;4.85;81.39;98031.66;4974620;28;20058;-66
2020/12/29 02:37:18;;;;;;;21.92;13.57;;;;;;;4.62;80.47;98031.31;4975591;28;20070;-65
2020/12/29 02:39:51;;;;;;;18.33;12.40;;;;;;;4.71;80.89;98036.69;4975498;28;20398;-65
2020/12/29 02:42:19;;;;;;;17.10;11.50;;;;;;;4.80;80.35;98038.16;4975650;28;20051;-65
2020/12/29 02:44:46;;;;;;;17.67;11.57;;;;;;;4.59;80.97;98035.53;4976051;28;20061;-68
2020/12/29 02:47:13;;;;;;;16.30;11.15;;;;;;;4.88;81.14;98044.63;4976026;28;20066;-66
2020/12/29 02:49:40;;;;;;;17.33;10.70;;;;;;;4.95;80.51;98047.59;4990553;28;20051;-66
2020/12/29 02:52:07;;;;;;;17.65;11.45;;;;;;;4.78;80.84;98048.59;4975419;28;20047;-64
2020/12/29 02:54:35;;;;;;;17.52;11.23;;;;;;;4.75;80.79;98057.47;4975313;28;20047;-67
2020/12/29 02:57:02;;;;;;;20.30;12.88;;;;;;;4.61;80.98;98057.00;4974649;28;20075;-68
2020/12/29 02:59:30;;;;;;;20.38;11.98;;;;;;;4.44;81.60;98066.19;4974944;28;20042;-67
2020/12/29 03:01:58;;;;;;;17.70;11.73;;;;;;;4.42;82.36;98075.81;4974976;28;20055;-68
2020/12/29 03:04:25;;;;;;;18.33;11.55;;;;;;;4.29;82.15;98064.09;4975015;28;20062;-67
2020/12/29 03:06:51;;;;;;;18.13;11.38;;;;;;;4.35;82.58;98078.31;4975133;28;20047;-67
2020/12/29 03:09:19;;;;;;;17.42;10.95;;;;;;;4.28;82.74;98084.31;4975192;28;20058;-67
2020/12/29 03:11:46;;;;;;;17.98;11.75;;;;;;;4.42;82.33;98089.44;4975002;28;20494;-67
2020/12/29 03:14:13;;;;;;;15.93;10.07;;;;;;;4.29;82.86;98083.16;4957453;28;20363;-67
2020/12/29 03:16:41;;;;;;;17.10;11.30;;;;;;;4.43;82.06;98088.31;4975505;28;20047;-67
2020/12/29 03:19:22;;;;;;;15.95;10.48;;;;;;;4.46;82.69;98093.09;4974282;28;20051;-68
2020/12/29 03:21:50;;;;;;;17.50;10.63;;;;;;;4.57;81.51;98100.50;4974394;28;20363;-67
2020/12/29 03:24:17;;;;;;;17.02;10.85;;;;;;;4.52;81.81;98100.72;4974951;28;20059;-64
2020/12/29 03:26:44;;;;;;;16.90;11.18;;;;;;;4.57;81.89;98092.31;4974577;28;20495;-66
2020/12/29 03:29:11;;;;;;;17.45;10.90;;;;;;;4.66;80.98;98100.41;4974659;28;20132;-65
2020/12/29 03:31:43;;;;;;;16.30;10.60;;;;;;;4.76;80.67;98099.19;4974908;28;20054;-64
2020/12/29 03:34:37;;;;;;;15.75;10.25;;;;;;;4.82;81.36;98108.72;4974395;28;20047;-68
2020/12/29 03:37:10;;;;;;;15.07;10.60;;;;;;;4.74;80.72;98117.78;4973979;28;20057;-67
2020/12/29 03:39:38;;;;;;;16.48;10.80;;;;;;;4.77;80.93;98123.38;4973608;28;20054;-64
2020/12/29 03:42:05;;;;;;;15.77;9.45;;;;;;;4.68;81.40;98128.13;4974524;28;20042;-66
2020/12/29 03:44:33;;;;;;;18.27;11.18;;;;;;;4.60;81.43;98131.75;4957182;28;20055;-66
2020/12/29 03:47:02;;;;;;;17.45;11.45;;;;;;;4.87;81.10;98133.84;4957343;28;20087;-66
2020/12/29 03:49:29;;;;;;;16.48;10.90;;;;;;;4.77;80.99;98138.94;4974700;28;20053;-66
2020/12/29 03:51:58;;;;;;;16.40;10.63;;;;;;;4.63;81.55;98146.63;4974695;28;20505;-65
2020/12/29 03:54:25;;;;;;;17.45;11.93;;;;;;;4.59;81.70;98152.75;4974373;28;20055;-67
2020/12/29 03:56:52;;;;;;;16.17;11.10;;;;;;;4.73;81.36;98159.81;4974562;28;20051;-64
2020/12/29 03:59:19;;;;;;;18.50;10.93;;;;;;;4.94;81.09;98157.81;4973999;28;20047;-65
2020/12/29 04:01:46;;;;;;;16.65;11.13;;;;;;;5.12;79.84;98170.94;4988893;28;20065;-66
2020/12/29 04:04:13;;;;;;;17.15;10.93;;;;;;;4.97;80.34;98166.13;4973804;28;20054;-65
2020/12/29 04:06:39;;;;;;;15.50;11.05;;;;;;;5.06;80.91;98166.00;4956847;28;20078;-66
2020/12/29 04:09:08;;;;;;;15.60;10.82;;;;;;;5.06;80.82;98177.72;4973913;28;20402;-65
2020/12/29 04:11:35;;;;;;;17.50;10.95;;;;;;;5.31;80.02;98178.56;4973588;28;20047;-62
2020/12/29 04:14:02;;;;;;;18.80;11.65;;;;;;;5.39;79.66;98183.09;4973767;28;20046;-66
2020/12/29 04:16:29;;;;;;;18.10;10.27;;;;;;;5.17;80.00;98186.28;4988120;28;20051;-64
2020/12/29 04:18:56;;;;;;;14.98;10.18;;;;;;;5.31;80.13;98184.00;4974212;28;20053;-64
2020/12/29 04:21:23;;;;;;;19.77;10.73;;;;;;;5.42;79.36;98196.09;4956366;28;20062;-64
2020/12/29 04:23:49;;;;;;;18.73;10.10;;;;;;;5.29;80.12;98191.75;4974190;28;20042;-64
2020/12/29 04:26:17;;;;;;;16.13;10.10;;;;;;;5.31;80.01;98194.94;4974596;28;20058;-65
2020/12/29 04:28:44;;;;;;;15.80;10.52;;;;;;;5.46;79.60;98197.78;4988448;28;20055;-65
2020/12/29 04:31:12;;;;;;;15.20;10.30;;;;;;;5.55;79.50;98203.91;4974657;28;20051;-66
2020/12/29 04:33:40;;;;;;;16.20;10.07;;;;;;;5.64;79.34;98203.81;4973792;28;20054;-64
2020/12/29 04:36:07;;;;;;;17.48;11.23;;;;;;;5.48;79.08;98203.69;4973872;28;20045;-67
2020/12/29 04:38:34;;;;;;;16.35;10.68;;;;;;;5.56;79.29;98208.22;4956619;28;20510;-65
2020/12/29 04:45:30;;;;;;;16.70;9.48;;;;;;;5.66;78.66;98216.00;4970866;28;20058;-65
2020/12/29 04:47:57;;;;;;;15.18;9.90;;;;;;;5.72;79.09;98216.53;4973795;28;20407;-65
2020/12/29 04:50:26;;;;;;;16.25;10.07;;;;;;;5.70;78.95;98222.34;4972795;28;20437;-65
2020/12/29 04:52:56;;;;;;;15.80;9.82;;;;;;;5.63;78.59;98218.59;4974022;28;20062;-66
2020/12/29 04:59:49;;;;;;;12.35;8.05;;;;;;;5.49;80.23;98226.34;4973038;28;20061;-67
2020/12/29 05:02:16;;;;;;;12.48;8.15;;;;;;;5.40;79.44;98240.09;4973712;28;20055;-65
2020/12/29 05:04:43;;;;;;;14.88;8.75;;;;;;;5.83;79.24;98247.75;4973550;28;20058;-65
2020/12/29 05:07:10;;;;;;;13.35;7.97;;;;;;;5.97;78.32;98241.94;4973667;28;20055;-65
2020/12/29 05:14:18;;;;;;;;;;;;;;;5.58;79.81;98246.13;4974074;28;20046;-65
2020/12/29 05:16:45;;;;;;;13.18;6.32;;;;;;;5.63;79.91;98252.16;4973271;28;20393;-65
2020/12/29 05:19:14;;;;;;;11.68;6.50;;;;;;;5.67;79.29;98247.59;4973529;28;20054;-65
2020/12/29 05:21:42;;;;;;;10.53;6.47;;;;;;;5.79;79.27;98246.03;4975253;28;20058;-64
2020/12/29 05:24:17;;;;;;;11.23;6.32;;;;;;;5.90;78.65;98241.72;4976683;28;20047;-66
2020/12/29 05:26:47;;;;;;;9.02;5.60;;;;;;;5.91;78.78;98251.50;4977043;28;20050;-65
2020/12/29 05:29:14;;;;;;;;;;;;;;;5.65;78.98;98257.28;4977470;28;20055;-65
2020/12/29 05:31:45;;;;;;;8.68;5.10;;;;;;;5.78;79.23;98252.59;4991215;28;19934;-66
2020/12/29 05:34:32;;;;;;;9.52;4.82;;;;;;;5.69;78.81;98253.53;4976799;28;20074;-64
2020/12/29 05:36:59;;;;;;;8.48;4.45;;;;;;;5.84;78.83;98259.47;4977061;28;20065;-67
2020/12/29 05:39:32;;;;;;;9.43;4.97;;;;;;;5.87;78.14;98253.31;4976886;28;20047;-65
2020/12/29 05:42:03;;;;;;;10.68;5.22;;;;;;;5.81;78.64;98250.00;4976668;28;20494;-65
2020/12/29 05:44:34;;;;;;;7.80;4.47;;;;;;;5.85;77.92;98256.41;4976802;28;20047;-65
2020/12/29 05:47:03;;;;;;;9.32;4.70;;;;;;;5.87;77.79;98251.41;4976363;28;20058;-65
2020/12/29 05:49:31;;;;;;;8.53;4.83;;;;;;;5.89;77.96;98262.78;4976604;28;20054;-64
2020/12/29 05:51:59;;;;;;;7.38;3.97;;;;;;;6.02;78.18;98258.88;4976529;28;20074;-65
2020/12/29 05:54:27;;;;;;;9.43;4.30;;;;;;;6.08;77.71;98267.66;4977090;28;20051;-66
2020/12/29 05:56:54;;;;;;;8.48;4.68;;;;;;;5.65;78.64;98277.19;4976552;28;20063;-65
2020/12/29 05:59:26;;;;;;;7.82;4.35;;;;;;;5.63;78.94;98279.47;4975137;28;20063;-67
2020/12/29 06:01:54;;;;;;;11.23;4.28;;;;;;;5.79;78.16;98278.81;4976771;28;20047;-67
2020/12/29 06:04:21;;;;;;;9.27;4.05;;;;;;;5.63;78.28;98289.59;4974795;28;20066;-65
2020/12/29 06:06:49;;;;;;;9.13;4.20;;;;;;;5.88;78.19;98288.50;4959105;28;20051;-67
2020/12/29 06:09:48;;;;;;;;;;;;;;;5.82;77.81;98299.97;4919416;29;20208;-66
2020/12/29 06:12:31;;;;;;;10.02;3.90;;;;;;;5.86;77.38;98300.91;4974659;28;19928;-65
2020/12/29 06:14:59;;;;;;;11.95;3.90;;;;;;;5.55;78.04;98302.22;4976006;28;20422;-67
2020/12/29 06:17:32;;;;;;;8.13;3.83;;;;;;;5.51;78.40;98312.22;4959042;28;20047;-66
2020/12/29 06:20:04;;;;;;;8.77;3.70;;;;;;;5.59;78.43;98311.34;4975824;28;20066;-67
2020/12/29 06:22:32;;;;;;;14.88;4.45;;;;;;;5.55;77.78;98315.06;4991162;28;20051;-67
2020/12/29 06:25:02;;;;;;;9.32;4.30;;;;;;;5.38;78.60;98323.44;4975568;28;20051;-67
2020/12/29 06:27:31;;;;;;;9.93;4.40;;;;;;;5.43;78.67;98320.50;4975661;28;20047;-67
2020/12/29 06:29:59;;;;;;;13.17;4.60;;;;;;;5.47;78.19;98330.38;4974853;28;20051;-67
2020/12/29 06:32:30;;;;;;;10.82;3.90;;;;;;;5.57;78.04;98332.72;4973475;28;20055;-67
2020/12/29 06:35:00;;;;;;;5.90;3.33;;;;;;;5.88;77.46;98331.41;4974183;28;20498;-66
2020/12/29 06:37:50;;;;;;;8.40;4.15;;;;;;;5.74;76.95;98329.78;4975707;28;20057;-67
2020/12/29 06:40:21;;;;;;;8.63;4.18;;;;;;;5.75;76.60;98339.56;4975682;28;20050;-64
2020/12/29 06:42:48;;;;;;;9.88;4.00;;;;;;;5.70;76.59;98336.25;4975698;28;20055;-65
2020/12/29 06:45:16;;;;;;;8.50;4.32;;;;;;;5.47;77.17;98341.31;4975825;28;20058;-66
2020/12/29 06:47:44;;;;;;;9.73;4.22;;;;;;;5.69;76.97;98340.91;4975430;28;20046;-65
2020/12/29 06:50:35;;;;;;;10.48;4.72;;;;;;;5.53;77.42;98350.09;4975274;28;20051;-66
2020/12/29 06:53:04;;;;;;;12.18;4.68;;;;;;;5.59;77.13;98357.75;4953281;29;20147;-64
2020/12/29 06:55:45;;;;;;;7.88;4.15;;;;;;;5.58;77.41;98367.06;4953476;29;20052;-65
2020/12/29 06:58:28;;;;;;;9.45;4.22;;;;;;;5.57;77.18;98367.41;4953624;29;20066;-68
2020/12/29 07:01:25;;;;;;;10.68;4.40;;;;;;;5.16;78.29;98375.69;4953878;29;20059;-67
2020/12/29 07:04:02;;;;;;;10.88;4.50;;;;;;;5.14;78.70;98378.75;4859632;29;20065;-65
2020/12/29 07:06:30;;;;;;;11.93;4.45;;;;;;;5.07;78.80;98383.16;4859563;29;20085;-64
2020/12/29 07:13:27;;;;;;;11.30;4.03;;;;;;;5.71;76.75;98387.81;4858225;29;20049;-66
2020/12/29 07:15:54;;;;;;;15.55;3.90;;;;;;;5.50;77.07;98395.25;4843059;29;20062;-65
2020/12/29 07:18:25;;;;;;;11.57;3.88;;;;;;;5.28;77.42;98387.44;4843771;29;20053;-67
2020/12/29 07:20:57;;;;;;;33.08;15.93;;;;;;;5.47;76.91;98400.59;4854805;29;20054;-66
2020/12/29 07:23:30;;;;;;;21.77;8.55;;;;;;;5.34;77.19;98396.22;4858212;29;20434;-66
2020/12/29 07:30:19;;;;;;;10.95;3.88;;;;;;;5.30;76.90;98420.66;4869022;29;20061;-64
2020/12/29 07:32:46;;;;;;;20.35;7.72;;;;;;;5.64;76.26;98419.53;4877511;29;20429;-65
2020/12/29 07:35:14;;;;;;;13.85;5.35;;;;;;;5.51;75.84;98435.06;4892858;29;20044;-65
2020/12/29 07:37:41;;;;;;;13.45;4.70;;;;;;;5.52;74.91;98439.41;4892886;29;20060;-64
2020/12/29 07:40:08;;;;;;;16.63;5.05;;;;;;;5.32;76.16;98444.88;4878201;28;20051;-64
2020/12/29 07:42:35;;;;;;;17.10;6.20;;;;;;;5.22;76.16;98442.56;4988708;28;20050;-65
2020/12/29 07:45:02;;;;;;;13.38;6.25;;;;;;;5.05;76.90;98445.41;4988823;28;20047;-65
2020/12/29 07:47:32;;;;;;;12.63;4.45;;;;;;;5.16;76.91;98441.19;4973616;28;20470;-67
2020/12/29 07:50:02;;;;;;;14.63;5.38;;;;;;;5.24;76.86;98451.22;4974099;28;20054;-65
2020/12/29 07:52:29;;;;;;;13.02;5.38;;;;;;;5.21;76.27;98449.94;4973385;28;20043;-66
2020/12/29 07:55:18;;;;;;;14.88;4.65;;;;;;;5.35;75.75;98464.09;4973943;28;20066;-65
2020/12/29 07:57:45;;;;;;;13.07;4.60;;;;;;;5.22;76.17;98461.66;4974034;28;20039;-65
2020/12/29 08:00:14;;;;;;;19.25;5.75;;;;;;;5.14;76.21;98468.78;4973683;28;20058;-64
2020/12/29 08:03:09;;;;;;;13.05;4.60;;;;;;;5.23;76.31;98472.25;4914701;29;20060;-65
2020/12/29 08:05:37;;;;;;;18.35;5.88;;;;;;;5.14;76.34;98468.00;4963853;28;20046;-65
2020/12/29 08:08:06;;;;;;;16.60;5.78;;;;;;;5.07;76.78;98465.81;4974217;28;20065;-64
2020/12/29 08:10:46;;;;;;;10.45;4.30;;;;;;;5.06;77.39;98475.09;4973789;28;20054;-65
2020/12/29 08:13:19;;;;;;;12.00;5.03;;;;;;;5.23;77.31;98479.66;4971508;28;20391;-65
2020/12/29 08:15:47;;;;;;;15.60;5.50;;;;;;;5.31;76.35;98482.31;4974073;28;20050;-65
2020/12/29 08:18:15;;;;;;;13.95;5.30;;;;;;;5.46;75.60;98478.16;4973904;28;20066;-64
2020/12/29 08:20:56;;;;;;;12.18;4.88;;;;;;;5.11;76.85;98488.53;4973927;28;20364;-66
2020/12/29 08:23:29;;;;;;;15.85;5.15;;;;;;;5.26;76.25;98487.97;4974329;28;20066;-67
2020/12/29 08:25:57;;;;;;;15.98;4.82;;;;;;;5.06;76.07;98490.66;4973503;28;20046;-65
2020/12/29 08:28:29;;;;;;;12.15;4.47;;;;;;;5.27;76.10;98497.75;4973583;28;20055;-67
2020/12/29 08:30:57;;;;;;;24.75;8.63;;;;;;;5.24;75.97;98486.69;4972460;28;20051;-66
2020/12/29 08:33:25;;;;;;;11.75;4.70;;;;;;;5.51;75.56;98497.06;4973974;28;20046;-67
2020/12/29 08:35:54;;;;;;;17.90;6.07;;;;;;;5.54;74.72;98496.41;4971910;28;20047;-66
2020/12/29 08:38:30;;;;;;;26.70;11.52;;;;;;;5.45;74.80;98509.31;4973825;28;20047;-62
2020/12/29 08:41:14;;;;;;;19.17;6.53;;;;;;;5.21;75.23;98509.19;4973454;28;20513;-66
2020/12/29 08:43:49;;;;;;;17.98;5.47;;;;;;;5.16;75.90;98507.44;4973709;28;20089;-64
2020/12/29 08:46:23;;;;;;;17.00;4.93;;;;;;;5.44;75.44;98503.06;4973674;28;20058;-67
2020/12/29 08:48:54;;;;;;;16.02;5.32;;;;;;;5.57;74.79;98514.84;4964318;28;20098;-66
2020/12/29 08:51:27;;;;;;;16.17;4.82;;;;;;;5.57;74.84;98514.84;4973407;28;20055;-65
2020/12/29 08:54:15;;;;;;;14.75;5.20;;;;;;;5.67;74.67;98507.03;4973648;28;20081;-67
2020/12/29 08:56:45;;;;;;;17.67;5.55;;;;;;;5.68;74.91;98513.31;4958482;28;20514;-65
2020/12/29 08:59:12;;;;;;;13.00;4.97;;;;;;;5.65;74.49;98516.69;4992118;28;20058;-65
2020/12/29 09:01:42;;;;;;;17.05;4.90;;;;;;;5.53;75.01;98520.16;4976821;28;20051;-64
2020/12/29 09:04:29;;;;;;;16.92;6.13;;;;;;;5.44;74.75;98530.34;4975788;28;20062;-69
2020/12/29 09:07:07;;;;;;;16.95;5.20;;;;;;;5.43;74.74;98531.50;4976544;28;20046;-69
2020/12/29 09:09:37;;;;;;;19.05;5.32;;;;;;;5.43;75.03;98538.88;4976920;28;20054;-68
2020/12/29 09:12:11;;;;;;;16.23;5.68;;;;;;;5.40;75.01;98537.63;4977081;28;20050;-67
2020/12/29 09:14:49;;;;;;;17.48;5.72;;;;;;;5.33;75.98;98539.28;4976927;28;20058;-65
2020/12/29 09:17:17;;;;;;;15.82;5.78;;;;;;;5.34;75.60;98547.13;4976715;28;20050;-68
2020/12/29 09:20:06;;;;;;;17.83;5.97;;;;;;;5.54;75.74;98540.88;4976703;28;20062;-68
2020/12/29 09:22:56;;;;;;;15.75;6.20;;;;;;;5.31;75.72;98549.72;4977182;28;20053;-67
2020/12/29 09:29:41;;;;;;;16.13;4.85;;;;;;;5.47;76.05;98558.94;4976971;28;20042;-66
2020/12/29 09:32:08;;;;;;;16.40;7.82;;;;;;;5.37;76.53;98570.25;4976666;28;20069;-66
2020/12/29 09:34:38;;;;;;;23.48;9.60;;;;;;;5.52;76.79;98580.56;4989958;28;20051;-65
2020/12/29 09:37:09;;;;;;;18.17;7.97;;;;;;;5.77;75.68;98581.53;4976355;28;20055;-67
2020/12/29 09:39:44;;;;;;;22.88;9.30;;;;;;;5.89;76.02;98587.88;4977391;28;20055;-66
2020/12/29 09:42:11;;;;;;;17.95;6.47;;;;;;;5.91;75.09;98588.31;4990683;28;20055;-66
2020/12/29 09:44:39;;;;;;;13.45;5.65;;;;;;;5.77;76.11;98595.94;4974324;28;20391;-66
2020/12/29 09:47:06;;;;;;;16.05;6.53;;;;;;;6.27;75.57;98601.34;4975745;28;20057;-65
2020/12/29 09:49:33;;;;;;;16.85;6.43;;;;;;;6.40;74.62;98600.25;4975996;28;20054;-66
2020/12/29 09:52:01;;;;;;;20.80;6.00;;;;;;;6.27;74.98;98604.09;4958792;28;20446;-65
2020/12/29 09:54:30;;;;;;;15.38;6.38;;;;;;;6.48;74.65;98608.38;4989946;28;20054;-68
2020/12/29 09:56:57;;;;;;;16.88;6.43;;;;;;;6.48;74.80;98608.38;4976598;28;20047;-64
2020/12/29 09:59:24;;;;;;;15.43;6.55;;;;;;;6.41;74.46;98602.66;4991875;28;20422;-65
2020/12/29 10:01:51;;;;;;;19.50;7.53;;;;;;;6.31;75.11;98608.53;4977799;28;20054;-67
2020/12/29 10:04:19;;;;;;;12.85;6.72;;;;;;;6.20;75.29;98612.84;4976730;28;20066;-65
2020/12/29 10:06:48;;;;;;;17.40;6.93;;;;;;;6.61;74.44;98607.25;4976465;28;20053;-64
2020/12/29 10:09:15;;;;;;;21.73;6.97;;;;;;;6.57;74.20;98621.97;4975862;28;20043;-63
2020/12/29 10:11:48;;;;;;;25.17;7.25;;;;;;;6.66;74.65;98623.44;4975275;28;20061;-63
2020/12/29 10:14:15;;;;;;;15.82;7.18;;;;;;;6.80;73.93;98614.91;4975353;28;20483;-65
2020/12/29 10:16:42;;;;;;;15.68;7.00;;;;;;;6.85;73.65;98623.72;4975219;28;20513;-64
2020/12/29 10:19:10;;;;;;;25.15;8.10;;;;;;;6.59;74.31;98620.47;4974927;28;20051;-65
2020/12/29 10:21:37;;;;;;;21.00;6.97;;;;;;;6.50;74.61;98630.69;4975272;28;20050;-65
2020/12/29 10:24:04;;;;;;;20.25;7.38;;;;;;;6.49;74.93;98623.63;4990000;28;20055;-65
2020/12/29 10:26:31;;;;;;;17.65;7.22;;;;;;;6.60;75.09;98624.81;4974903;28;20062;-66
2020/12/29 10:28:59;;;;;;;15.65;6.85;;;;;;;6.28;75.98;98624.81;4990040;28;20058;-64
2020/12/29 10:31:29;;;;;;;21.23;8.23;;;;;;;6.40;76.04;98628.38;4974690;28;20059;-64
2020/12/29 10:33:56;;;;;;;23.80;10.77;;;;;;;6.67;75.13;98627.81;4975470;28;20340;-63
2020/12/29 10:36:34;;;;;;;23.73;8.20;;;;;;;6.63;74.90;98628.78;4974692;28;20051;-63
2020/12/29 10:39:04;;;;;;;17.85;7.43;;;;;;;6.86;74.70;98624.53;4973399;28;20050;-64
2020/12/29 10:41:38;;;;;;;19.88;6.72;;;;;;;6.90;74.13;98636.41;4973255;28;20062;-65
2020/12/29 10:44:09;;;;;;;18.38;7.25;;;;;;;7.11;74.28;98633.56;4956976;28;20047;-67
2020/12/29 10:46:37;;;;;;;15.73;6.53;;;;;;;6.97;74.46;98644.03;4974363;28;20414;-65
2020/12/29 10:49:04;;;;;;;20.60;7.03;;;;;;;7.00;73.54;98637.88;4974025;28;20054;-66
2020/12/29 10:51:33;;;;;;;22.13;6.40;;;;;;;6.84;74.05;98637.75;4988184;28;20066;-63
2020/12/29 10:54:00;;;;;;;14.50;6.20;;;;;;;7.12;73.92;98635.16;4972681;28;20046;-64
2020/12/29 10:56:27;;;;;;;15.40;6.43;;;;;;;7.12;73.99;98648.84;4973096;28;20514;-64
2020/12/29 10:58:54;;;;;;;16.60;6.68;;;;;;;6.99;74.54;98647.25;4974273;28;20053;-65
2020/12/29 11:01:23;;;;;;;16.60;6.10;;;;;;;7.15;73.40;98646.22;4970915;28;20050;-66
2020/12/29 11:03:58;;;;;;;17.52;6.10;;;;;;;7.07;73.53;98663.56;4974003;28;20047;-66
2020/12/29 11:06:25;;;;;;;18.75;5.18;;;;;;;7.17;74.22;98654.09;4973884;28;20051;-65
2020/12/29 11:08:52;;;;;;;16.42;5.57;;;;;;;7.22;73.74;98654.66;4972491;28;20062;-65
2020/12/29 11:11:19;;;;;;;16.15;5.80;;;;;;;6.97;74.42;98655.78;4972525;28;20070;-64
2020/12/29 11:13:47;;;;;;;16.77;5.20;;;;;;;7.12;74.33;98648.84;4973840;28;20506;-65
2020/12/29 11:16:19;;;;;;;20.80;5.53;;;;;;;7.12;74.23;98641.44;4956768;28;20047;-66
2020/12/29 11:18:47;;;;;;;15.77;5.07;;;;;;;6.79;74.60;98655.19;4988086;28;20046;-65
2020/12/29 11:21:16;;;;;;;20.90;5.65;;;;;;;6.84;74.51;98646.75;4972680;28;20057;-64
2020/12/29 11:23:43;;;;;;;14.32;5.90;;;;;;;7.20;74.30;98646.00;4954385;28;20398;-66
2020/12/29 11:26:17;;;;;;;14.13;4.78;;;;;;;7.36;72.82;98640.63;4974057;28;20050;-65
2020/12/29 11:28:44;;;;;;;12.82;4.50;;;;;;;7.34;73.24;98640.97;4972110;28;20054;-66
2020/12/29 11:31:23;;;;;;;10.02;4.18;;;;;;;7.14;73.92;98650.09;4974333;28;20050;-64
2020/12/29 11:33:56;;;;;;;11.45;4.10;;;;;;;7.21;73.82;98657.75;4974962;28;20046;-65
2020/12/29 11:36:23;;;;;;;9.00;3.78;;;;;;;7.19;73.04;98655.34;4986149;28;20043;-65
2020/12/29 11:38:53;;;;;;;10.30;3.78;;;;;;;7.34;73.03;98659.38;4972371;28;20062;-64
2020/12/29 11:41:23;;;;;;;14.50;7.00;;;;;;;7.52;73.03;98664.25;4971862;28;20057;-66
2020/12/29 11:43:51;;;;;;;15.88;4.50;;;;;;;7.54;71.19;98663.91;4952958;28;20073;-67
2020/12/29 11:46:21;;;;;;;9.50;3.45;;;;;;;7.52;71.66;98657.97;4970350;28;20054;-67
2020/12/29 11:48:48;;;;;;;11.77;3.83;;;;;;;7.09;72.61;98666.75;4971036;28;20062;-67
2020/12/29 11:51:18;;;;;;;11.77;3.42;;;;;;;7.42;72.75;98656.50;4986648;28;20487;-66
2020/12/29 11:53:44;;;;;;;10.13;3.53;;;;;;;7.45;71.70;98658.56;4971319;28;20491;-67
2020/12/29 11:56:15;;;;;;;8.77;3.20;;;;;;;7.35;71.79;98659.00;4970252;28;20050;-66
2020/12/29 11:58:45;;;;;;;6.68;2.90;;;;;;;7.42;71.83;98658.44;4953684;28;20063;-65
2020/12/29 12:01:14;;;;;;;9.63;2.70;;;;;;;7.35;71.77;98663.69;4970583;28;20062;-66
2020/12/29 12:03:40;;;;;;;8.15;3.08;;;;;;;7.48;71.31;98659.81;4985331;28;20062;-68
2020/12/29 12:06:08;;;;;;;9.77;2.70;;;;;;;7.30;71.73;98663.91;4971636;28;20051;-63
2020/12/29 12:08:35;;;;;;;8.60;2.50;;;;;;;7.30;71.41;98663.91;4969620;28;20051;-65
2020/12/29 12:11:02;;;;;;;6.95;2.78;;;;;;;7.41;71.63;98663.09;4985481;28;20058;-64
2020/12/29 12:13:29;;;;;;;8.18;2.72;;;;;;;7.38;71.50;98666.53;4970287;28;20050;-65
2020/12/29 12:15:56;;;;;;;9.40;3.08;;;;;;;7.39;71.33;98659.91;4953169;28;20058;-65
2020/12/29 12:18:41;;;;;;;8.52;2.45;;;;;;;7.39;71.55;98657.16;4971396;28;20054;-65
2020/12/29 12:21:08;;;;;;;9.00;2.58;;;;;;;7.70;71.76;98664.81;4971212;28;20522;-64
2020/12/29 12:23:41;;;;;;;6.45;2.30;;;;;;;7.73;70.30;98661.38;4984425;28;20388;-65